Minneapolis, MN

10:39 AM CDT on May 04, 2015 (GMT -0500)
Saint Paul Downtown-Holman | | Change Station
CLOSE
Current Station
Airport
Location: St. Paul,
Elevation: 702 ft
Nearby Weather Stations

Elev 702 ft 44.93 °N, 93.06 °W | Updated 46 minutes ago

Clear
Clear
62 °F
Feels Like 62 °F
N
12
Wind Variable Wind from NNE

Today
High -- | Low -- °F
--% Chance of Precip.
Yesterday
High -- | Low -- °F
Precip. -- in
5:58 AM 8:22 PM
Full, 100% visible
Pressure 30.16 in
Visibility -9999.0 miles
Clouds Clear
Dew Point 35 °F
Humidity 37%
Rainfall 0.00 in
Snow Depth Not available.
UV 5 out of 12
Pollen 9.80 out of 12
Air Quality Not available.
Flu Activity Sporadic
METAR KSTP 041453Z 03010KT CLR 17/02 A3017 RMK AO2 SLP213 T01670017 51012 RVRNO $

More Conditions Fewer Conditions

Pressure 30.16 in
Visibility -9999.0 miles
Clouds Clear
Dew Point 35 °F
Humidity 37%
Rainfall 0.00 in
Snow Depth Not available.
UV 5 out of 12
Pollen 9.80 out of 12
Air Quality Not available.
Flu Activity Sporadic
METAR KSTP 041453Z 03010KT CLR 17/02 A3017 RMK AO2 SLP213 T01670017 51012 RVRNO $

More Conditions Fewer Conditions

Nepal has a long way to go to dig out and rebuild from a devastating earthquake. We have teamed up with several charities and organizations to make contributing to the relief effort as easy as possible.
How you can help: Portlight Strategies | Red Cross

10-Day Weather Forecast

Almanac

Astronomy

May. 04, 2015 Rise Set
Actual Time
Civil Twilight
Nautical Twilight
Astronomical Twilight
Moon
Length of Visible Light
Length of Day
Tomorrow will be .
, % of the Moon is Illuminated

Today's Extremes

State Highs State Lows

Community

WunderPhotos

Upload Photos

1,818,640 photos uploaded!

WunderBlogs® & News

Nearby

Air Quality

  Air Quality AQ Index Pollutant
Not available.

Snow Depth

Station Depth Elevation

Earthquake Activity

City Distance Mag. Time & Date
Minimum magnitude displayed is 2.5.

Coastal Water Temperatures

Place Temperature

Stations

Nearby Weather Stations

Station Location Temp. Windchill Dew Point Humidity Wind Precip. Elev Updated Type